sensor_id;sensor_type;location;lat;lon;timestamp;pressure;altitude;pressure_sealevel;temperature;humidity
24422;BME280;12600;53.326;-6.298;2023-03-02T00:00:23;102631.75;;;9.76;63.64
24422;BME280;12600;53.326;-6.298;2023-03-02T00:03:14;102625.22;;;9.77;63.56
24422;BME280;12600;53.326;-6.298;2023-03-02T00:06:05;102619.19;;;9.75;63.63
24422;BME280;12600;53.326;-6.298;2023-03-02T00:08:56;102612.09;;;9.74;64.09
24422;BME280;12600;53.326;-6.298;2023-03-02T00:11:49;102613.16;;;9.73;63.97
24422;BME280;12600;53.326;-6.298;2023-03-02T00:14:39;102611.97;;;9.64;64.53
24422;BME280;12600;53.326;-6.298;2023-03-02T00:17:28;102607.00;;;9.61;64.74
24422;BME280;12600;53.326;-6.298;2023-03-02T00:20:18;102625.03;;;9.62;64.92
24422;BME280;12600;53.326;-6.298;2023-03-02T00:23:07;102610.00;;;9.59;64.78
24422;BME280;12600;53.326;-6.298;2023-03-02T00:25:56;102605.09;;;9.61;64.61
24422;BME280;12600;53.326;-6.298;2023-03-02T00:28:47;102608.41;;;9.63;64.71
24422;BME280;12600;53.326;-6.298;2023-03-02T00:31:37;102593.94;;;9.63;64.47
24422;BME280;12600;53.326;-6.298;2023-03-02T00:34:26;102604.88;;;9.63;64.67
24422;BME280;12600;53.326;-6.298;2023-03-02T00:37:17;102595.25;;;9.60;64.74
24422;BME280;12600;53.326;-6.298;2023-03-02T00:40:09;102581.88;;;9.59;64.71
24422;BME280;12600;53.326;-6.298;2023-03-02T00:42:58;102586.22;;;9.55;65.04
24422;BME280;12600;53.326;-6.298;2023-03-02T00:45:49;102590.06;;;9.59;64.85
24422;BME280;12600;53.326;-6.298;2023-03-02T00:48:38;102585.75;;;9.63;64.75
24422;BME280;12600;53.326;-6.298;2023-03-02T00:51:28;102578.63;;;9.62;64.74
24422;BME280;12600;53.326;-6.298;2023-03-02T00:54:17;102588.84;;;9.71;64.78
24422;BME280;12600;53.326;-6.298;2023-03-02T00:57:07;102583.63;;;9.70;64.78
24422;BME280;12600;53.326;-6.298;2023-03-02T00:59:57;102572.72;;;9.70;64.96
24422;BME280;12600;53.326;-6.298;2023-03-02T01:02:54;102564.97;;;9.62;65.16
24422;BME280;12600;53.326;-6.298;2023-03-02T01:05:43;102574.69;;;9.74;65.08
24422;BME280;12600;53.326;-6.298;2023-03-02T01:08:33;102580.44;;;9.78;64.90
24422;BME280;12600;53.326;-6.298;2023-03-02T01:11:24;102579.63;;;9.77;65.04
24422;BME280;12600;53.326;-6.298;2023-03-02T01:14:13;102567.84;;;9.72;65.38
24422;BME280;12600;53.326;-6.298;2023-03-02T01:17:03;102566.44;;;9.69;65.53
24422;BME280;12600;53.326;-6.298;2023-03-02T01:19:54;102581.97;;;9.69;66.02
24422;BME280;12600;53.326;-6.298;2023-03-02T01:22:45;102562.84;;;9.64;66.04
24422;BME280;12600;53.326;-6.298;2023-03-02T01:25:35;102572.97;;;9.68;65.93
24422;BME280;12600;53.326;-6.298;2023-03-02T01:28:25;102565.59;;;9.69;65.77
24422;BME280;12600;53.326;-6.298;2023-03-02T01:31:15;102565.31;;;9.65;65.70
24422;BME280;12600;53.326;-6.298;2023-03-02T01:34:04;102555.88;;;9.51;66.33
24422;BME280;12600;53.326;-6.298;2023-03-02T01:36:55;102546.13;;;9.60;66.15
24422;BME280;12600;53.326;-6.298;2023-03-02T01:39:44;102539.38;;;9.63;66.07
24422;BME280;12600;53.326;-6.298;2023-03-02T01:42:36;102548.03;;;9.60;66.21
24422;BME280;12600;53.326;-6.298;2023-03-02T01:45:47;102538.47;;;9.57;66.46
24422;BME280;12600;53.326;-6.298;2023-03-02T01:48:47;102544.69;;;9.52;66.81
24422;BME280;12600;53.326;-6.298;2023-03-02T01:51:47;102545.72;;;9.46;67.07
24422;BME280;12600;53.326;-6.298;2023-03-02T01:54:38;102529.03;;;9.43;66.72
24422;BME280;12600;53.326;-6.298;2023-03-02T01:57:33;102515.13;;;9.44;67.23
24422;BME280;12600;53.326;-6.298;2023-03-02T02:00:35;102528.28;;;9.47;66.96
24422;BME280;12600;53.326;-6.298;2023-03-02T02:03:28;102529.09;;;9.48;67.55
24422;BME280;12600;53.326;-6.298;2023-03-02T02:06:22;102531.00;;;9.47;67.59
24422;BME280;12600;53.326;-6.298;2023-03-02T02:09:15;102510.13;;;9.36;68.12
24422;BME280;12600;53.326;-6.298;2023-03-02T02:12:13;102521.66;;;9.43;67.80
24422;BME280;12600;53.326;-6.298;2023-03-02T02:15:06;102519.19;;;9.42;68.54
24422;BME280;12600;53.326;-6.298;2023-03-02T02:17:56;102511.09;;;9.47;67.86
24422;BME280;12600;53.326;-6.298;2023-03-02T02:20:45;102501.44;;;9.39;68.69
24422;BME280;12600;53.326;-6.298;2023-03-02T02:23:41;102507.75;;;9.45;68.22
24422;BME280;12600;53.326;-6.298;2023-03-02T02:26:38;102501.50;;;9.44;68.73
24422;BME280;12600;53.326;-6.298;2023-03-02T02:29:32;102506.94;;;9.44;69.23
24422;BME280;12600;53.326;-6.298;2023-03-02T02:32:26;102501.75;;;9.43;69.45
24422;BME280;12600;53.326;-6.298;2023-03-02T02:35:20;102495.72;;;9.41;69.76
24422;BME280;12600;53.326;-6.298;2023-03-02T02:38:14;102499.09;;;9.48;69.60
24422;BME280;12600;53.326;-6.298;2023-03-02T02:41:07;102489.00;;;9.48;69.55
24422;BME280;12600;53.326;-6.298;2023-03-02T02:44:02;102472.81;;;9.42;69.50
24422;BME280;12600;53.326;-6.298;2023-03-02T02:46:52;102472.50;;;9.38;69.77
24422;BME280;12600;53.326;-6.298;2023-03-02T02:49:42;102489.00;;;9.48;69.63
24422;BME280;12600;53.326;-6.298;2023-03-02T02:52:31;102477.53;;;9.46;69.50
24422;BME280;12600;53.326;-6.298;2023-03-02T02:55:22;102465.41;;;9.37;69.24
24422;BME280;12600;53.326;-6.298;2023-03-02T02:58:29;102476.94;;;9.44;69.39
24422;BME280;12600;53.326;-6.298;2023-03-02T03:01:23;102476.63;;;9.41;69.49
24422;BME280;12600;53.326;-6.298;2023-03-02T03:04:19;102473.66;;;9.42;69.23
24422;BME280;12600;53.326;-6.298;2023-03-02T03:07:23;102453.63;;;9.32;69.37
24422;BME280;12600;53.326;-6.298;2023-03-02T03:10:17;102465.41;;;9.37;69.49
24422;BME280;12600;53.326;-6.298;2023-03-02T03:13:09;102450.91;;;9.32;70.15
24422;BME280;12600;53.326;-6.298;2023-03-02T03:15:59;102454.38;;;9.27;70.48
24422;BME280;12600;53.326;-6.298;2023-03-02T03:18:51;102452.22;;;9.29;70.31
24422;BME280;12600;53.326;-6.298;2023-03-02T03:21:41;102453.75;;;9.20;71.33
24422;BME280;12600;53.326;-6.298;2023-03-02T03:24:33;102428.84;;;9.11;70.72
24422;BME280;12600;53.326;-6.298;2023-03-02T03:27:24;102450.22;;;9.19;70.47
24422;BME280;12600;53.326;-6.298;2023-03-02T03:30:15;102439.19;;;9.09;70.73
24422;BME280;12600;53.326;-6.298;2023-03-02T03:33:04;102437.81;;;9.07;70.86
24422;BME280;12600;53.326;-6.298;2023-03-02T03:36:00;102430.13;;;9.04;70.65
24422;BME280;12600;53.326;-6.298;2023-03-02T03:38:49;102429.56;;;9.02;70.45
24422;BME280;12600;53.326;-6.298;2023-03-02T03:41:39;102426.84;;;9.02;70.33
24422;BME280;12600;53.326;-6.298;2023-03-02T03:44:29;102422.72;;;8.99;70.77
24422;BME280;12600;53.326;-6.298;2023-03-02T03:47:20;102422.97;;;8.97;70.53
24422;BME280;12600;53.326;-6.298;2023-03-02T03:50:11;102423.47;;;8.94;71.13
24422;BME280;12600;53.326;-6.298;2023-03-02T03:53:03;102425.94;;;8.96;71.54
24422;BME280;12600;53.326;-6.298;2023-03-02T03:55:53;102432.72;;;8.93;71.54
24422;BME280;12600;53.326;-6.298;2023-03-02T03:58:43;102414.84;;;8.81;71.87
24422;BME280;12600;53.326;-6.298;2023-03-02T04:01:34;102412.38;;;8.79;71.67
24422;BME280;12600;53.326;-6.298;2023-03-02T04:04:28;102417.38;;;8.87;71.79
24422;BME280;12600;53.326;-6.298;2023-03-02T04:07:18;102411.56;;;8.79;71.91
24422;BME280;12600;53.326;-6.298;2023-03-02T04:10:10;102420.38;;;8.86;71.92
24422;BME280;12600;53.326;-6.298;2023-03-02T04:13:02;102411.56;;;8.79;72.67
24422;BME280;12600;53.326;-6.298;2023-03-02T04:15:52;102413.34;;;8.68;72.98
24422;BME280;12600;53.326;-6.298;2023-03-02T04:18:42;102395.81;;;8.59;72.44
24422;BME280;12600;53.326;-6.298;2023-03-02T04:21:32;102418.81;;;8.68;72.79
24422;BME280;12600;53.326;-6.298;2023-03-02T04:24:22;102418.22;;;8.66;72.63
24422;BME280;12600;53.326;-6.298;2023-03-02T04:27:17;102407.25;;;8.61;73.03
24422;BME280;12600;53.326;-6.298;2023-03-02T04:30:09;102413.16;;;8.75;72.88
24422;BME280;12600;53.326;-6.298;2023-03-02T04:32:59;102419.44;;;8.75;74.24
24422;BME280;12600;53.326;-6.298;2023-03-02T04:35:49;102419.75;;;8.79;73.66
24422;BME280;12600;53.326;-6.298;2023-03-02T04:38:38;102427.09;;;8.78;74.18
24422;BME280;12600;53.326;-6.298;2023-03-02T04:41:28;102404.13;;;8.74;74.24
24422;BME280;12600;53.326;-6.298;2023-03-02T04:44:19;102404.66;;;8.71;74.86
24422;BME280;12600;53.326;-6.298;2023-03-02T04:47:09;102394.28;;;8.68;73.98
24422;BME280;12600;53.326;-6.298;2023-03-02T04:49:58;102411.00;;;8.77;73.79
24422;BME280;12600;53.326;-6.298;2023-03-02T04:52:47;102403.00;;;8.70;73.78
24422;BME280;12600;53.326;-6.298;2023-03-02T04:55:37;102402.13;;;8.64;72.51
24422;BME280;12600;53.326;-6.298;2023-03-02T04:58:27;102403.53;;;8.67;73.17
24422;BME280;12600;53.326;-6.298;2023-03-02T05:01:19;102397.50;;;8.65;71.53
24422;BME280;12600;53.326;-6.298;2023-03-02T05:04:08;102390.09;;;8.60;71.62
24422;BME280;12600;53.326;-6.298;2023-03-02T05:06:58;102394.47;;;8.61;70.90
24422;BME280;12600;53.326;-6.298;2023-03-02T05:09:47;102399.97;;;8.66;70.75
24422;BME280;12600;53.326;-6.298;2023-03-02T05:12:36;102399.22;;;8.71;70.69
24422;BME280;12600;53.326;-6.298;2023-03-02T05:15:41;102376.13;;;8.57;70.25
24422;BME280;12600;53.326;-6.298;2023-03-02T05:18:32;102389.91;;;8.67;70.00
24422;BME280;12600;53.326;-6.298;2023-03-02T05:21:22;102385.59;;;8.71;69.78
24422;BME280;12600;53.326;-6.298;2023-03-02T05:24:12;102379.31;;;8.71;69.89
24422;BME280;12600;53.326;-6.298;2023-03-02T05:27:01;102388.38;;;8.76;69.80
24422;BME280;12600;53.326;-6.298;2023-03-02T05:29:51;102392.19;;;8.75;70.24
24422;BME280;12600;53.326;-6.298;2023-03-02T05:32:41;102383.94;;;8.70;69.51
24422;BME280;12600;53.326;-6.298;2023-03-02T05:35:31;102384.47;;;8.67;69.70
24422;BME280;12600;53.326;-6.298;2023-03-02T05:38:21;102376.22;;;8.62;70.35
24422;BME280;12600;53.326;-6.298;2023-03-02T05:41:10;102388.50;;;8.64;69.73
24422;BME280;12600;53.326;-6.298;2023-03-02T05:43:59;102380.00;;;8.61;70.04
24422;BME280;12600;53.326;-6.298;2023-03-02T05:46:49;102382.56;;;8.67;70.08
24422;BME280;12600;53.326;-6.298;2023-03-02T05:49:38;102377.84;;;8.63;70.69
24422;BME280;12600;53.326;-6.298;2023-03-02T05:52:29;102382.28;;;8.69;70.76
24422;BME280;12600;53.326;-6.298;2023-03-02T05:55:18;102380.94;;;8.72;70.46
24422;BME280;12600;53.326;-6.298;2023-03-02T05:58:12;102388.88;;;8.73;70.87
24422;BME280;12600;53.326;-6.298;2023-03-02T06:01:07;102370.00;;;8.66;71.11
24422;BME280;12600;53.326;-6.298;2023-03-02T06:04:01;102378.78;;;8.74;70.91
24422;BME280;12600;53.326;-6.298;2023-03-02T06:06:51;102373.31;;;8.68;71.55
24422;BME280;12600;53.326;-6.298;2023-03-02T06:09:42;102375.25;;;8.73;71.80
24422;BME280;12600;53.326;-6.298;2023-03-02T06:12:31;102375.00;;;8.75;72.07
24422;BME280;12600;53.326;-6.298;2023-03-02T06:15:21;102384.31;;;8.79;72.22
24422;BME280;12600;53.326;-6.298;2023-03-02T06:18:10;102378.59;;;8.80;72.32
24422;BME280;12600;53.326;-6.298;2023-03-02T06:21:00;102387.84;;;8.79;72.85
24422;BME280;12600;53.326;-6.298;2023-03-02T06:23:50;102376.69;;;8.81;73.00
24422;BME280;12600;53.326;-6.298;2023-03-02T06:26:41;102370.69;;;8.79;72.61
24422;BME280;12600;53.326;-6.298;2023-03-02T06:29:30;102372.31;;;8.80;72.91
24422;BME280;12600;53.326;-6.298;2023-03-02T06:32:23;102377.22;;;8.78;72.59
24422;BME280;12600;53.326;-6.298;2023-03-02T06:35:12;102363.16;;;8.64;72.81
24422;BME280;12600;53.326;-6.298;2023-03-02T06:38:04;102375.84;;;8.75;72.35
24422;BME280;12600;53.326;-6.298;2023-03-02T06:40:53;102362.06;;;8.65;72.43
24422;BME280;12600;53.326;-6.298;2023-03-02T06:43:44;102367.03;;;8.68;72.18
24422;BME280;12600;53.326;-6.298;2023-03-02T06:46:33;102368.09;;;8.67;72.11
24422;BME280;12600;53.326;-6.298;2023-03-02T06:49:22;102368.59;;;8.64;72.29
24422;BME280;12600;53.326;-6.298;2023-03-02T06:52:12;102366.69;;;8.64;72.98
24422;BME280;12600;53.326;-6.298;2023-03-02T06:55:09;102358.22;;;8.61;72.75
24422;BME280;12600;53.326;-6.298;2023-03-02T06:58:04;102367.28;;;8.66;73.03
24422;BME280;12600;53.326;-6.298;2023-03-02T07:00:55;102378.31;;;8.77;73.13
24422;BME280;12600;53.326;-6.298;2023-03-02T07:03:47;102370.69;;;8.79;72.88
24422;BME280;12600;53.326;-6.298;2023-03-02T07:06:36;102364.66;;;8.77;73.03
24422;BME280;12600;53.326;-6.298;2023-03-02T07:09:26;102376.47;;;8.82;73.13
24422;BME280;12600;53.326;-6.298;2023-03-02T07:12:17;102382.47;;;8.84;73.15
24422;BME280;12600;53.326;-6.298;2023-03-02T07:15:09;102379.19;;;8.82;73.04
24422;BME280;12600;53.326;-6.298;2023-03-02T07:18:03;102385.41;;;8.78;73.24
24422;BME280;12600;53.326;-6.298;2023-03-02T07:20:53;102386.84;;;8.85;73.19
24422;BME280;12600;53.326;-6.298;2023-03-02T07:23:43;102386.31;;;8.88;73.25
24422;BME280;12600;53.326;-6.298;2023-03-02T07:26:32;102392.38;;;8.90;73.08
24422;BME280;12600;53.326;-6.298;2023-03-02T07:29:22;102393.75;;;8.93;73.22
24422;BME280;12600;53.326;-6.298;2023-03-02T07:32:11;102399.50;;;8.96;73.28
24422;BME280;12600;53.326;-6.298;2023-03-02T07:35:02;102403.84;;;8.92;73.61
24422;BME280;12600;53.326;-6.298;2023-03-02T07:37:52;102416.56;;;8.87;75.28
24422;BME280;12600;53.326;-6.298;2023-03-02T07:40:42;102417.91;;;8.84;76.17
24422;BME280;12600;53.326;-6.298;2023-03-02T07:43:31;102415.94;;;8.80;76.41
24422;BME280;12600;53.326;-6.298;2023-03-02T07:46:22;102414.47;;;8.72;76.96
24422;BME280;12600;53.326;-6.298;2023-03-02T07:49:11;102419.09;;;8.72;77.14
24422;BME280;12600;53.326;-6.298;2023-03-02T07:52:03;102410.88;;;8.66;77.41
24422;BME280;12600;53.326;-6.298;2023-03-02T07:54:52;102415.00;;;8.69;77.44
24422;BME280;12600;53.326;-6.298;2023-03-02T07:57:43;102416.06;;;8.68;77.62
24422;BME280;12600;53.326;-6.298;2023-03-02T08:00:32;102425.00;;;8.63;78.17
24422;BME280;12600;53.326;-6.298;2023-03-02T08:03:23;102414.34;;;8.62;78.66
24422;BME280;12600;53.326;-6.298;2023-03-02T08:06:12;102421.13;;;8.59;78.37
24422;BME280;12600;53.326;-6.298;2023-03-02T08:09:03;102428.88;;;8.67;78.74
24422;BME280;12600;53.326;-6.298;2023-03-02T08:11:53;102425.78;;;8.59;78.84
24422;BME280;12600;53.326;-6.298;2023-03-02T08:14:42;102421.97;;;8.60;78.76
24422;BME280;12600;53.326;-6.298;2023-03-02T08:17:34;102442.81;;;8.71;78.29
24422;BME280;12600;53.326;-6.298;2023-03-02T08:20:24;102429.63;;;8.63;78.30
24422;BME280;12600;53.326;-6.298;2023-03-02T08:23:13;102439.78;;;8.67;78.29
24422;BME280;12600;53.326;-6.298;2023-03-02T08:26:04;102417.25;;;8.55;78.53
24422;BME280;12600;53.326;-6.298;2023-03-02T08:28:53;102442.25;;;8.69;78.81
24422;BME280;12600;53.326;-6.298;2023-03-02T08:31:43;102431.91;;;8.71;78.47
24422;BME280;12600;53.326;-6.298;2023-03-02T08:34:32;102440.16;;;8.76;78.85
24422;BME280;12600;53.326;-6.298;2023-03-02T08:37:21;102452.13;;;8.75;78.94
24422;BME280;12600;53.326;-6.298;2023-03-02T08:40:11;102460.41;;;8.63;79.22
24422;BME280;12600;53.326;-6.298;2023-03-02T08:43:02;102458.22;;;8.60;79.88
24422;BME280;12600;53.326;-6.298;2023-03-02T08:45:55;102446.41;;;8.55;79.46
24422;BME280;12600;53.326;-6.298;2023-03-02T08:48:45;102461.03;;;8.49;79.72
24422;BME280;12600;53.326;-6.298;2023-03-02T08:51:35;102463.91;;;8.59;80.10
24422;BME280;12600;53.326;-6.298;2023-03-02T08:54:25;102455.16;;;8.57;80.21
24422;BME280;12600;53.326;-6.298;2023-03-02T08:57:15;102464.59;;;8.71;80.52
24422;BME280;12600;53.326;-6.298;2023-03-02T09:00:10;102467.41;;;8.76;80.60
24422;BME280;12600;53.326;-6.298;2023-03-02T09:03:01;102459.34;;;8.86;80.77
24422;BME280;12600;53.326;-6.298;2023-03-02T09:05:51;102459.91;;;8.88;80.84
24422;BME280;12600;53.326;-6.298;2023-03-02T09:08:41;102459.22;;;8.98;80.37
24422;BME280;12600;53.326;-6.298;2023-03-02T09:11:31;102476.59;;;8.92;80.34
24422;BME280;12600;53.326;-6.298;2023-03-02T09:14:21;102485.78;;;8.86;80.06
24422;BME280;12600;53.326;-6.298;2023-03-02T09:17:13;102479.53;;;8.85;80.66
24422;BME280;12600;53.326;-6.298;2023-03-02T09:20:05;102482.88;;;8.92;80.27
24422;BME280;12600;53.326;-6.298;2023-03-02T09:22:55;102486.19;;;8.94;80.67
24422;BME280;12600;53.326;-6.298;2023-03-02T09:25:44;102481.81;;;8.93;80.86
24422;BME280;12600;53.326;-6.298;2023-03-02T09:28:36;102494.34;;;8.94;80.63
24422;BME280;12600;53.326;-6.298;2023-03-02T09:31:25;102493.84;;;8.97;80.72
24422;BME280;12600;53.326;-6.298;2023-03-02T09:34:18;102492.78;;;8.99;80.59
24422;BME280;12600;53.326;-6.298;2023-03-02T09:37:07;102486.75;;;8.96;80.24
24422;BME280;12600;53.326;-6.298;2023-03-02T09:39:57;102489.84;;;9.05;80.68
24422;BME280;12600;53.326;-6.298;2023-03-02T09:43:11;102489.84;;;9.05;80.46
24422;BME280;12600;53.326;-6.298;2023-03-02T09:46:15;102484.53;;;9.15;80.78
24422;BME280;12600;53.326;-6.298;2023-03-02T09:49:16;102488.19;;;9.26;81.00
24422;BME280;12600;53.326;-6.298;2023-03-02T09:52:30;102473.75;;;9.25;80.57
24422;BME280;12600;53.326;-6.298;2023-03-02T09:55:24;102486.91;;;9.34;80.39
24422;BME280;12600;53.326;-6.298;2023-03-02T09:58:18;102484.81;;;9.41;79.64
24422;BME280;12600;53.326;-6.298;2023-03-02T10:01:15;102484.09;;;9.50;80.20
24422;BME280;12600;53.326;-6.298;2023-03-02T10:04:19;102486.75;;;9.45;79.35
24422;BME280;12600;53.326;-6.298;2023-03-02T10:07:14;102481.28;;;9.40;79.11
24422;BME280;12600;53.326;-6.298;2023-03-02T10:10:17;102483.47;;;9.43;79.26
24422;BME280;12600;53.326;-6.298;2023-03-02T10:13:21;102483.09;;;9.35;78.42
24422;BME280;12600;53.326;-6.298;2023-03-02T10:16:22;102479.25;;;9.58;79.31
24422;BME280;12600;53.326;-6.298;2023-03-02T10:19:21;102480.97;;;9.64;79.27
24422;BME280;12600;53.326;-6.298;2023-03-02T10:22:18;102490.75;;;9.60;77.50
24422;BME280;12600;53.326;-6.298;2023-03-02T10:25:37;102488.56;;;9.62;77.87
24422;BME280;12600;53.326;-6.298;2023-03-02T10:28:33;102492.28;;;9.50;77.86
24422;BME280;12600;53.326;-6.298;2023-03-02T10:31:28;102496.97;;;9.55;78.07
24422;BME280;12600;53.326;-6.298;2023-03-02T10:34:18;102493.91;;;9.46;77.87
24422;BME280;12600;53.326;-6.298;2023-03-02T10:37:15;102506.00;;;9.56;78.05
24422;BME280;12600;53.326;-6.298;2023-03-02T10:40:10;102501.97;;;9.63;78.21
24422;BME280;12600;53.326;-6.298;2023-03-02T10:43:13;102497.53;;;9.84;78.56
24422;BME280;12600;53.326;-6.298;2023-03-02T10:46:05;102494.59;;;9.91;76.09
24422;BME280;12600;53.326;-6.298;2023-03-02T10:48:57;102500.94;;;10.01;77.11
24422;BME280;12600;53.326;-6.298;2023-03-02T10:51:56;102495.25;;;10.03;76.96
24422;BME280;12600;53.326;-6.298;2023-03-02T10:54:47;102496.56;;;10.00;76.79
24422;BME280;12600;53.326;-6.298;2023-03-02T10:57:38;102480.06;;;9.85;76.17
24422;BME280;12600;53.326;-6.298;2023-03-02T11:00:29;102487.41;;;9.79;76.50
24422;BME280;12600;53.326;-6.298;2023-03-02T11:03:21;102501.34;;;9.83;76.38
24422;BME280;12600;53.326;-6.298;2023-03-02T11:06:18;102486.69;;;9.94;76.81
24422;BME280;12600;53.326;-6.298;2023-03-02T11:09:13;102510.88;;;10.87;78.88
24422;BME280;12600;53.326;-6.298;2023-03-02T11:12:04;102505.47;;;11.85;77.99
24422;BME280;12600;53.326;-6.298;2023-03-02T11:15:13;102496.44;;;12.05;74.58
24422;BME280;12600;53.326;-6.298;2023-03-02T11:18:10;102493.16;;;12.13;75.28
24422;BME280;12600;53.326;-6.298;2023-03-02T11:21:05;102496.44;;;12.00;71.45
24422;BME280;12600;53.326;-6.298;2023-03-02T11:24:02;102494.53;;;11.95;72.59
24422;BME280;12600;53.326;-6.298;2023-03-02T11:27:01;102506.28;;;11.86;70.58
24422;BME280;12600;53.326;-6.298;2023-03-02T11:29:59;102498.31;;;11.74;70.48
24422;BME280;12600;53.326;-6.298;2023-03-02T11:32:54;102493.16;;;12.13;69.74
24422;BME280;12600;53.326;-6.298;2023-03-02T11:35:51;102496.41;;;12.41;66.34
24422;BME280;12600;53.326;-6.298;2023-03-02T11:38:47;102490.91;;;12.56;65.03
24422;BME280;12600;53.326;-6.298;2023-03-02T11:41:36;102507.34;;;12.66;64.20
24422;BME280;12600;53.326;-6.298;2023-03-02T11:44:26;102503.78;;;12.76;64.88
24422;BME280;12600;53.326;-6.298;2023-03-02T11:47:19;102502.41;;;12.68;63.49
24422;BME280;12600;53.326;-6.298;2023-03-02T11:50:12;102505.75;;;12.35;62.03
24422;BME280;12600;53.326;-6.298;2023-03-02T11:53:08;102501.91;;;11.95;62.14
24422;BME280;12600;53.326;-6.298;2023-03-02T11:56:00;102493.06;;;11.52;61.60
24422;BME280;12600;53.326;-6.298;2023-03-02T11:58:54;102498.50;;;11.37;63.11
24422;BME280;12600;53.326;-6.298;2023-03-02T12:01:47;102500.31;;;11.11;62.84
24422;BME280;12600;53.326;-6.298;2023-03-02T12:04:39;102490.00;;;11.33;64.41
24422;BME280;12600;53.326;-6.298;2023-03-02T12:07:28;102494.25;;;12.12;64.85
24422;BME280;12600;53.326;-6.298;2023-03-02T12:10:30;102487.91;;;12.52;63.23
24422;BME280;12600;53.326;-6.298;2023-03-02T12:13:24;102495.06;;;12.43;60.60
24422;BME280;12600;53.326;-6.298;2023-03-02T12:16:21;102498.63;;;12.33;60.45
24422;BME280;12600;53.326;-6.298;2023-03-02T12:19:23;102493.72;;;12.20;59.98
24422;BME280;12600;53.326;-6.298;2023-03-02T12:22:27;102486.59;;;12.19;60.40
24422;BME280;12600;53.326;-6.298;2023-03-02T12:25:37;102474.28;;;11.96;59.82
24422;BME280;12600;53.326;-6.298;2023-03-02T12:28:34;102480.81;;;11.85;60.39
24422;BME280;12600;53.326;-6.298;2023-03-02T12:31:25;102490.41;;;11.83;60.90
24422;BME280;12600;53.326;-6.298;2023-03-02T12:34:32;102483.28;;;11.82;61.87
24422;BME280;12600;53.326;-6.298;2023-03-02T12:37:27;102485.22;;;11.96;62.47
24422;BME280;12600;53.326;-6.298;2023-03-02T12:40:32;102477.28;;;12.00;61.81
24422;BME280;12600;53.326;-6.298;2023-03-02T12:43:30;102487.66;;;11.93;60.70
24422;BME280;12600;53.326;-6.298;2023-03-02T12:46:32;102472.88;;;11.94;60.65
24422;BME280;12600;53.326;-6.298;2023-03-02T12:49:44;102475.31;;;12.41;59.95
24422;BME280;12600;53.326;-6.298;2023-03-02T12:52:37;102483.41;;;12.92;59.34
24422;BME280;12600;53.326;-6.298;2023-03-02T12:55:27;102458.50;;;12.78;57.19
24422;BME280;12600;53.326;-6.298;2023-03-02T12:58:20;102481.50;;;12.82;56.93
24422;BME280;12600;53.326;-6.298;2023-03-02T13:01:21;102475.53;;;12.75;57.65
24422;BME280;12600;53.326;-6.298;2023-03-02T13:04:21;102475.56;;;12.55;57.71
24422;BME280;12600;53.326;-6.298;2023-03-02T13:07:16;102468.19;;;12.35;56.64
24422;BME280;12600;53.326;-6.298;2023-03-02T13:10:18;102483.00;;;12.39;57.47
24422;BME280;12600;53.326;-6.298;2023-03-02T13:13:15;102482.44;;;12.32;57.57
24422;BME280;12600;53.326;-6.298;2023-03-02T13:16:18;102486.03;;;12.07;56.98
24422;BME280;12600;53.326;-6.298;2023-03-02T13:19:12;102473.69;;;11.94;57.24
24422;BME280;12600;53.326;-6.298;2023-03-02T13:22:03;102483.84;;;11.89;57.64
24422;BME280;12600;53.326;-6.298;2023-03-02T13:24:57;102479.13;;;11.69;58.18
24422;BME280;12600;53.326;-6.298;2023-03-02T13:27:54;102471.16;;;11.47;59.22
24422;BME280;12600;53.326;-6.298;2023-03-02T13:30:43;102478.28;;;11.48;59.49
24422;BME280;12600;53.326;-6.298;2023-03-02T13:33:43;102457.47;;;11.42;60.14
24422;BME280;12600;53.326;-6.298;2023-03-02T13:36:35;102466.78;;;11.51;59.81
24422;BME280;12600;53.326;-6.298;2023-03-02T13:39:28;102455.88;;;11.71;60.81
24422;BME280;12600;53.326;-6.298;2023-03-02T13:42:26;102455.34;;;11.95;60.00
24422;BME280;12600;53.326;-6.298;2023-03-02T13:45:24;102437.81;;;12.11;59.85
24422;BME280;12600;53.326;-6.298;2023-03-02T13:48:14;102452.00;;;12.54;59.73
24422;BME280;12600;53.326;-6.298;2023-03-02T13:51:15;102452.19;;;13.42;59.12
24422;BME280;12600;53.326;-6.298;2023-03-02T13:54:15;102439.97;;;14.51;57.42
24422;BME280;12600;53.326;-6.298;2023-03-02T13:57:15;102449.66;;;15.53;54.87
24422;BME280;12600;53.326;-6.298;2023-03-02T14:00:10;102449.28;;;15.22;50.56
24422;BME280;12600;53.326;-6.298;2023-03-02T14:03:02;102445.78;;;14.73;51.63
24422;BME280;12600;53.326;-6.298;2023-03-02T14:05:59;102451.03;;;14.17;53.01
24422;BME280;12600;53.326;-6.298;2023-03-02T14:08:48;102449.31;;;13.58;53.51
24422;BME280;12600;53.326;-6.298;2023-03-02T14:11:40;102443.25;;;13.11;54.46
24422;BME280;12600;53.326;-6.298;2023-03-02T14:14:32;102447.81;;;12.77;55.56
24422;BME280;12600;53.326;-6.298;2023-03-02T14:17:25;102455.28;;;12.56;56.54
24422;BME280;12600;53.326;-6.298;2023-03-02T14:20:18;102455.31;;;12.30;57.22
24422;BME280;12600;53.326;-6.298;2023-03-02T14:23:08;102455.63;;;12.14;58.05
24422;BME280;12600;53.326;-6.298;2023-03-02T14:25:57;102444.91;;;11.71;59.13
24422;BME280;12600;53.326;-6.298;2023-03-02T14:28:46;102463.22;;;11.45;60.17
24422;BME280;12600;53.326;-6.298;2023-03-02T14:31:52;102459.00;;;11.12;61.33
24422;BME280;12600;53.326;-6.298;2023-03-02T14:34:42;102456.47;;;10.85;61.84
24422;BME280;12600;53.326;-6.298;2023-03-02T14:37:33;102461.06;;;10.80;62.23
24422;BME280;12600;53.326;-6.298;2023-03-02T14:40:26;102469.50;;;10.73;62.63
24422;BME280;12600;53.326;-6.298;2023-03-02T14:43:15;102457.44;;;10.64;62.76
24422;BME280;12600;53.326;-6.298;2023-03-02T14:46:05;102449.50;;;10.62;63.19
24422;BME280;12600;53.326;-6.298;2023-03-02T14:48:54;102456.13;;;10.72;63.44
24422;BME280;12600;53.326;-6.298;2023-03-02T14:51:53;102452.88;;;10.80;63.86
24422;BME280;12600;53.326;-6.298;2023-03-02T14:54:49;102440.25;;;10.74;63.15
24422;BME280;12600;53.326;-6.298;2023-03-02T14:57:40;102455.13;;;10.93;63.62
24422;BME280;12600;53.326;-6.298;2023-03-02T15:00:30;102440.94;;;11.01;63.60